sensor_id;sensor_type;location;lat;lon;timestamp;P1;durP1;ratioP1;P2;durP2;ratioP2
38779;SDS011;29273;49.962;9.768;2023-07-20T00:00:48;1.15;;;0.90;;
38779;SDS011;29273;49.962;9.768;2023-07-20T00:03:18;1.50;;;1.40;;
38779;SDS011;29273;49.962;9.768;2023-07-20T00:05:48;1.90;;;1.38;;
38779;SDS011;29273;49.962;9.768;2023-07-20T00:08:14;2.72;;;1.30;;
38779;SDS011;29273;49.962;9.768;2023-07-20T00:10:41;3.05;;;1.30;;
38779;SDS011;29273;49.962;9.768;2023-07-20T00:13:07;2.38;;;1.13;;
38779;SDS011;29273;49.962;9.768;2023-07-20T00:15:32;2.42;;;1.30;;
38779;SDS011;29273;49.962;9.768;2023-07-20T00:17:58;1.17;;;1.08;;
38779;SDS011;29273;49.962;9.768;2023-07-20T00:20:23;1.65;;;1.08;;
38779;SDS011;29273;49.962;9.768;2023-07-20T00:22:50;1.58;;;1.30;;
38779;SDS011;29273;49.962;9.768;2023-07-20T00:25:16;2.25;;;1.27;;
38779;SDS011;29273;49.962;9.768;2023-07-20T00:27:42;3.03;;;1.25;;
38779;SDS011;29273;49.962;9.768;2023-07-20T00:30:07;0.98;;;0.95;;
38779;SDS011;29273;49.962;9.768;2023-07-20T00:32:33;1.27;;;1.10;;
38779;SDS011;29273;49.962;9.768;2023-07-20T00:34:59;1.40;;;1.05;;
38779;SDS011;29273;49.962;9.768;2023-07-20T00:37:24;1.58;;;1.02;;
38779;SDS011;29273;49.962;9.768;2023-07-20T00:39:50;1.63;;;1.00;;
38779;SDS011;29273;49.962;9.768;2023-07-20T00:42:17;1.55;;;1.10;;
38779;SDS011;29273;49.962;9.768;2023-07-20T00:44:44;0.95;;;0.82;;
38779;SDS011;29273;49.962;9.768;2023-07-20T00:47:09;1.60;;;1.27;;
38779;SDS011;29273;49.962;9.768;2023-07-20T00:49:35;1.73;;;1.17;;
38779;SDS011;29273;49.962;9.768;2023-07-20T00:52:03;3.22;;;1.10;;
38779;SDS011;29273;49.962;9.768;2023-07-20T00:54:30;1.75;;;1.05;;
38779;SDS011;29273;49.962;9.768;2023-07-20T00:56:56;1.63;;;1.10;;
38779;SDS011;29273;49.962;9.768;2023-07-20T00:59:23;1.95;;;1.42;;
38779;SDS011;29273;49.962;9.768;2023-07-20T01:01:48;2.47;;;1.13;;
38779;SDS011;29273;49.962;9.768;2023-07-20T01:04:15;1.50;;;1.02;;
38779;SDS011;29273;49.962;9.768;2023-07-20T01:09:23;1.10;;;0.90;;
38779;SDS011;29273;49.962;9.768;2023-07-20T01:14:25;1.17;;;1.02;;
38779;SDS011;29273;49.962;9.768;2023-07-20T01:16:51;1.00;;;0.90;;
38779;SDS011;29273;49.962;9.768;2023-07-20T01:19:19;1.52;;;0.80;;
38779;SDS011;29273;49.962;9.768;2023-07-20T01:21:47;1.55;;;1.13;;
38779;SDS011;29273;49.962;9.768;2023-07-20T01:27:22;1.08;;;0.95;;
38779;SDS011;29273;49.962;9.768;2023-07-20T01:32:39;0.60;;;0.60;;
38779;SDS011;29273;49.962;9.768;2023-07-20T01:35:07;1.17;;;0.90;;
38779;SDS011;29273;49.962;9.768;2023-07-20T01:37:39;0.90;;;0.70;;
38779;SDS011;29273;49.962;9.768;2023-07-20T01:40:08;1.13;;;0.90;;
38779;SDS011;29273;49.962;9.768;2023-07-20T01:42:35;2.30;;;1.17;;
38779;SDS011;29273;49.962;9.768;2023-07-20T01:45:00;1.92;;;1.00;;
38779;SDS011;29273;49.962;9.768;2023-07-20T01:47:26;1.20;;;1.00;;
38779;SDS011;29273;49.962;9.768;2023-07-20T01:49:51;1.33;;;1.00;;
38779;SDS011;29273;49.962;9.768;2023-07-20T01:52:17;1.52;;;1.10;;
38779;SDS011;29273;49.962;9.768;2023-07-20T01:54:42;1.20;;;1.00;;
38779;SDS011;29273;49.962;9.768;2023-07-20T01:57:07;2.63;;;1.40;;
38779;SDS011;29273;49.962;9.768;2023-07-20T01:59:33;1.80;;;0.90;;
38779;SDS011;29273;49.962;9.768;2023-07-20T02:01:59;1.15;;;0.82;;
38779;SDS011;29273;49.962;9.768;2023-07-20T02:04:24;1.23;;;0.90;;
38779;SDS011;29273;49.962;9.768;2023-07-20T02:06:49;2.20;;;1.02;;
38779;SDS011;29273;49.962;9.768;2023-07-20T02:09:15;1.58;;;0.90;;
38779;SDS011;29273;49.962;9.768;2023-07-20T02:11:41;1.00;;;0.80;;
38779;SDS011;29273;49.962;9.768;2023-07-20T02:14:06;2.38;;;1.10;;
38779;SDS011;29273;49.962;9.768;2023-07-20T02:16:32;0.88;;;0.88;;
38779;SDS011;29273;49.962;9.768;2023-07-20T02:18:57;2.40;;;0.80;;
38779;SDS011;29273;49.962;9.768;2023-07-20T02:21:23;1.48;;;1.10;;
38779;SDS011;29273;49.962;9.768;2023-07-20T02:23:49;1.88;;;0.90;;
38779;SDS011;29273;49.962;9.768;2023-07-20T02:26:14;1.38;;;0.85;;
38779;SDS011;29273;49.962;9.768;2023-07-20T02:28:40;0.88;;;0.77;;
38779;SDS011;29273;49.962;9.768;2023-07-20T02:31:06;0.93;;;0.70;;
38779;SDS011;29273;49.962;9.768;2023-07-20T02:33:32;1.15;;;0.98;;
38779;SDS011;29273;49.962;9.768;2023-07-20T02:35:57;1.70;;;0.95;;
38779;SDS011;29273;49.962;9.768;2023-07-20T02:38:23;1.75;;;0.85;;
38779;SDS011;29273;49.962;9.768;2023-07-20T02:40:49;1.45;;;0.90;;
38779;SDS011;29273;49.962;9.768;2023-07-20T02:43:14;1.77;;;0.98;;
38779;SDS011;29273;49.962;9.768;2023-07-20T02:45:40;2.28;;;1.00;;
38779;SDS011;29273;49.962;9.768;2023-07-20T02:48:08;1.40;;;1.00;;
38779;SDS011;29273;49.962;9.768;2023-07-20T02:50:33;0.77;;;0.77;;
38779;SDS011;29273;49.962;9.768;2023-07-20T02:53:00;1.95;;;1.10;;
38779;SDS011;29273;49.962;9.768;2023-07-20T02:55:26;3.42;;;1.15;;
38779;SDS011;29273;49.962;9.768;2023-07-20T02:57:51;1.15;;;0.90;;
38779;SDS011;29273;49.962;9.768;2023-07-20T03:00:17;1.45;;;0.90;;
38779;SDS011;29273;49.962;9.768;2023-07-20T03:02:44;1.80;;;1.10;;
38779;SDS011;29273;49.962;9.768;2023-07-20T03:05:13;1.15;;;0.93;;
38779;SDS011;29273;49.962;9.768;2023-07-20T03:07:39;1.23;;;1.00;;
38779;SDS011;29273;49.962;9.768;2023-07-20T03:10:05;1.30;;;0.90;;
38779;SDS011;29273;49.962;9.768;2023-07-20T03:12:34;1.60;;;0.98;;
38779;SDS011;29273;49.962;9.768;2023-07-20T03:15:03;1.85;;;1.00;;
38779;SDS011;29273;49.962;9.768;2023-07-20T03:17:30;1.17;;;0.98;;
38779;SDS011;29273;49.962;9.768;2023-07-20T03:19:56;1.30;;;0.80;;
38779;SDS011;29273;49.962;9.768;2023-07-20T03:22:22;1.30;;;1.10;;
38779;SDS011;29273;49.962;9.768;2023-07-20T03:24:49;1.83;;;0.98;;
38779;SDS011;29273;49.962;9.768;2023-07-20T03:27:15;1.10;;;1.00;;
38779;SDS011;29273;49.962;9.768;2023-07-20T03:29:40;1.38;;;1.02;;
38779;SDS011;29273;49.962;9.768;2023-07-20T03:32:06;1.05;;;0.90;;
38779;SDS011;29273;49.962;9.768;2023-07-20T03:34:31;1.70;;;0.90;;
38779;SDS011;29273;49.962;9.768;2023-07-20T03:36:57;1.38;;;1.20;;
38779;SDS011;29273;49.962;9.768;2023-07-20T03:39:22;1.25;;;1.00;;
38779;SDS011;29273;49.962;9.768;2023-07-20T03:41:48;1.42;;;1.05;;
38779;SDS011;29273;49.962;9.768;2023-07-20T03:44:13;2.08;;;0.80;;
38779;SDS011;29273;49.962;9.768;2023-07-20T03:46:39;0.95;;;0.80;;
38779;SDS011;29273;49.962;9.768;2023-07-20T03:49:04;1.30;;;1.20;;
38779;SDS011;29273;49.962;9.768;2023-07-20T03:51:31;1.00;;;0.90;;
38779;SDS011;29273;49.962;9.768;2023-07-20T03:53:57;1.20;;;1.10;;
38779;SDS011;29273;49.962;9.768;2023-07-20T03:56:23;1.33;;;0.90;;
38779;SDS011;29273;49.962;9.768;2023-07-20T03:58:49;2.10;;;1.00;;
38779;SDS011;29273;49.962;9.768;2023-07-20T04:01:15;2.00;;;1.30;;
38779;SDS011;29273;49.962;9.768;2023-07-20T04:03:42;2.85;;;1.00;;
38779;SDS011;29273;49.962;9.768;2023-07-20T04:06:08;1.42;;;1.00;;
38779;SDS011;29273;49.962;9.768;2023-07-20T04:08:33;1.10;;;1.00;;
38779;SDS011;29273;49.962;9.768;2023-07-20T04:11:01;1.20;;;0.80;;
38779;SDS011;29273;49.962;9.768;2023-07-20T04:13:27;2.60;;;1.50;;
38779;SDS011;29273;49.962;9.768;2023-07-20T04:15:53;1.15;;;1.05;;
38779;SDS011;29273;49.962;9.768;2023-07-20T04:18:18;1.52;;;1.00;;
38779;SDS011;29273;49.962;9.768;2023-07-20T04:20:44;1.83;;;1.05;;
38779;SDS011;29273;49.962;9.768;2023-07-20T04:23:10;2.63;;;1.15;;
38779;SDS011;29273;49.962;9.768;2023-07-20T04:25:36;1.42;;;1.20;;
38779;SDS011;29273;49.962;9.768;2023-07-20T04:28:05;1.77;;;1.05;;
38779;SDS011;29273;49.962;9.768;2023-07-20T04:30:35;1.13;;;0.90;;
38779;SDS011;29273;49.962;9.768;2023-07-20T04:33:02;1.50;;;1.00;;
38779;SDS011;29273;49.962;9.768;2023-07-20T04:38:15;1.98;;;1.10;;
38779;SDS011;29273;49.962;9.768;2023-07-20T04:40:46;1.30;;;1.10;;
38779;SDS011;29273;49.962;9.768;2023-07-20T04:43:16;1.13;;;1.00;;
38779;SDS011;29273;49.962;9.768;2023-07-20T04:45:43;1.10;;;0.90;;
38779;SDS011;29273;49.962;9.768;2023-07-20T04:48:10;1.42;;;1.00;;
38779;SDS011;29273;49.962;9.768;2023-07-20T04:50:45;1.30;;;0.95;;
38779;SDS011;29273;49.962;9.768;2023-07-20T04:53:12;1.73;;;1.10;;
38779;SDS011;29273;49.962;9.768;2023-07-20T04:55:38;1.88;;;1.05;;
38779;SDS011;29273;49.962;9.768;2023-07-20T04:58:05;1.58;;;1.17;;
38779;SDS011;29273;49.962;9.768;2023-07-20T05:00:34;1.33;;;1.05;;
38779;SDS011;29273;49.962;9.768;2023-07-20T05:03:04;1.83;;;1.00;;
38779;SDS011;29273;49.962;9.768;2023-07-20T05:05:30;1.40;;;1.20;;
38779;SDS011;29273;49.962;9.768;2023-07-20T05:07:56;1.40;;;1.30;;
38779;SDS011;29273;49.962;9.768;2023-07-20T05:10:22;2.08;;;1.38;;
38779;SDS011;29273;49.962;9.768;2023-07-20T05:12:48;2.15;;;1.10;;
38779;SDS011;29273;49.962;9.768;2023-07-20T05:15:14;1.92;;;1.27;;
38779;SDS011;29273;49.962;9.768;2023-07-20T05:17:41;3.55;;;1.20;;
38779;SDS011;29273;49.962;9.768;2023-07-20T05:20:06;4.18;;;1.40;;
38779;SDS011;29273;49.962;9.768;2023-07-20T05:22:35;3.00;;;1.20;;
38779;SDS011;29273;49.962;9.768;2023-07-20T05:25:05;2.40;;;1.20;;
38779;SDS011;29273;49.962;9.768;2023-07-20T05:27:33;2.00;;;1.17;;
38779;SDS011;29273;49.962;9.768;2023-07-20T05:29:59;2.40;;;1.20;;
38779;SDS011;29273;49.962;9.768;2023-07-20T05:32:24;2.17;;;1.23;;
38779;SDS011;29273;49.962;9.768;2023-07-20T05:34:54;1.30;;;1.20;;
38779;SDS011;29273;49.962;9.768;2023-07-20T05:37:20;1.98;;;1.02;;
38779;SDS011;29273;49.962;9.768;2023-07-20T05:39:45;1.63;;;1.10;;
38779;SDS011;29273;49.962;9.768;2023-07-20T05:42:11;1.50;;;1.40;;
38779;SDS011;29273;49.962;9.768;2023-07-20T05:44:36;3.95;;;1.30;;
38779;SDS011;29273;49.962;9.768;2023-07-20T05:47:02;1.58;;;1.20;;
38779;SDS011;29273;49.962;9.768;2023-07-20T05:49:28;1.40;;;1.30;;
38779;SDS011;29273;49.962;9.768;2023-07-20T05:51:54;1.23;;;1.02;;
38779;SDS011;29273;49.962;9.768;2023-07-20T05:54:21;5.32;;;1.50;;
38779;SDS011;29273;49.962;9.768;2023-07-20T05:56:46;2.40;;;1.27;;
38779;SDS011;29273;49.962;9.768;2023-07-20T05:59:12;1.45;;;1.23;;
38779;SDS011;29273;49.962;9.768;2023-07-20T06:01:38;1.48;;;1.00;;
38779;SDS011;29273;49.962;9.768;2023-07-20T06:04:04;1.98;;;1.08;;
38779;SDS011;29273;49.962;9.768;2023-07-20T06:06:29;1.55;;;0.98;;
38779;SDS011;29273;49.962;9.768;2023-07-20T06:08:54;1.30;;;1.13;;
38779;SDS011;29273;49.962;9.768;2023-07-20T06:11:20;2.25;;;1.30;;
38779;SDS011;29273;49.962;9.768;2023-07-20T06:13:46;2.10;;;1.33;;
38779;SDS011;29273;49.962;9.768;2023-07-20T06:16:11;1.73;;;1.35;;
38779;SDS011;29273;49.962;9.768;2023-07-20T06:18:36;1.50;;;1.00;;
38779;SDS011;29273;49.962;9.768;2023-07-20T06:21:02;3.25;;;1.27;;
38779;SDS011;29273;49.962;9.768;2023-07-20T06:23:27;1.48;;;1.17;;
38779;SDS011;29273;49.962;9.768;2023-07-20T06:25:53;1.55;;;1.10;;
38779;SDS011;29273;49.962;9.768;2023-07-20T06:28:18;1.30;;;1.20;;
38779;SDS011;29273;49.962;9.768;2023-07-20T06:30:44;2.65;;;1.20;;
38779;SDS011;29273;49.962;9.768;2023-07-20T06:33:09;1.20;;;1.05;;
38779;SDS011;29273;49.962;9.768;2023-07-20T06:35:35;1.90;;;1.10;;
38779;SDS011;29273;49.962;9.768;2023-07-20T06:38:01;2.10;;;1.25;;
38779;SDS011;29273;49.962;9.768;2023-07-20T06:40:29;1.98;;;1.27;;
38779;SDS011;29273;49.962;9.768;2023-07-20T06:42:55;2.75;;;1.20;;
38779;SDS011;29273;49.962;9.768;2023-07-20T06:45:22;2.05;;;1.48;;
38779;SDS011;29273;49.962;9.768;2023-07-20T06:47:47;2.58;;;1.40;;
38779;SDS011;29273;49.962;9.768;2023-07-20T06:50:13;1.30;;;1.00;;
38779;SDS011;29273;49.962;9.768;2023-07-20T06:52:39;1.75;;;1.20;;
38779;SDS011;29273;49.962;9.768;2023-07-20T06:55:05;1.33;;;1.00;;
38779;SDS011;29273;49.962;9.768;2023-07-20T06:57:31;1.98;;;1.35;;
38779;SDS011;29273;49.962;9.768;2023-07-20T06:59:57;1.40;;;1.10;;
38779;SDS011;29273;49.962;9.768;2023-07-20T07:02:23;1.20;;;1.02;;
38779;SDS011;29273;49.962;9.768;2023-07-20T07:04:48;1.70;;;1.00;;
38779;SDS011;29273;49.962;9.768;2023-07-20T07:07:14;1.60;;;1.20;;
38779;SDS011;29273;49.962;9.768;2023-07-20T07:09:40;1.27;;;1.02;;
38779;SDS011;29273;49.962;9.768;2023-07-20T07:12:06;3.03;;;1.02;;
38779;SDS011;29273;49.962;9.768;2023-07-20T07:14:32;1.50;;;1.10;;
38779;SDS011;29273;49.962;9.768;2023-07-20T07:16:57;2.17;;;1.10;;
38779;SDS011;29273;49.962;9.768;2023-07-20T07:19:22;1.80;;;1.23;;
38779;SDS011;29273;49.962;9.768;2023-07-20T07:21:48;1.42;;;1.00;;
38779;SDS011;29273;49.962;9.768;2023-07-20T07:24:13;1.30;;;1.20;;
38779;SDS011;29273;49.962;9.768;2023-07-20T07:26:39;1.75;;;1.00;;
38779;SDS011;29273;49.962;9.768;2023-07-20T07:29:05;1.30;;;1.10;;
38779;SDS011;29273;49.962;9.768;2023-07-20T07:31:30;2.10;;;1.20;;
38779;SDS011;29273;49.962;9.768;2023-07-20T07:33:58;1.40;;;1.23;;
38779;SDS011;29273;49.962;9.768;2023-07-20T07:36:24;2.95;;;1.55;;
38779;SDS011;29273;49.962;9.768;2023-07-20T07:38:50;2.13;;;1.40;;
38779;SDS011;29273;49.962;9.768;2023-07-20T07:41:15;1.38;;;1.10;;
38779;SDS011;29273;49.962;9.768;2023-07-20T07:43:41;1.48;;;1.02;;
38779;SDS011;29273;49.962;9.768;2023-07-20T07:46:07;1.55;;;0.98;;
38779;SDS011;29273;49.962;9.768;2023-07-20T07:48:33;1.63;;;1.20;;
38779;SDS011;29273;49.962;9.768;2023-07-20T07:50:58;1.35;;;1.20;;
38779;SDS011;29273;49.962;9.768;2023-07-20T07:53:24;1.50;;;1.20;;
38779;SDS011;29273;49.962;9.768;2023-07-20T07:55:51;2.40;;;1.20;;
38779;SDS011;29273;49.962;9.768;2023-07-20T07:58:17;1.33;;;1.05;;
38779;SDS011;29273;49.962;9.768;2023-07-20T08:00:42;1.75;;;1.00;;
38779;SDS011;29273;49.962;9.768;2023-07-20T08:03:09;1.20;;;1.10;;
38779;SDS011;29273;49.962;9.768;2023-07-20T08:05:35;1.33;;;1.10;;
38779;SDS011;29273;49.962;9.768;2023-07-20T08:08:02;1.52;;;0.93;;
38779;SDS011;29273;49.962;9.768;2023-07-20T08:10:29;1.95;;;1.40;;
38779;SDS011;29273;49.962;9.768;2023-07-20T08:12:55;1.60;;;1.10;;
38779;SDS011;29273;49.962;9.768;2023-07-20T08:15:20;1.63;;;1.05;;
38779;SDS011;29273;49.962;9.768;2023-07-20T08:17:46;2.30;;;1.33;;
38779;SDS011;29273;49.962;9.768;2023-07-20T08:20:13;1.10;;;1.00;;
38779;SDS011;29273;49.962;9.768;2023-07-20T08:22:39;1.45;;;1.20;;
38779;SDS011;29273;49.962;9.768;2023-07-20T08:25:05;1.50;;;1.05;;
38779;SDS011;29273;49.962;9.768;2023-07-20T08:27:31;1.05;;;0.95;;
38779;SDS011;29273;49.962;9.768;2023-07-20T08:29:57;1.77;;;1.30;;
38779;SDS011;29273;49.962;9.768;2023-07-20T08:32:22;2.08;;;1.00;;
38779;SDS011;29273;49.962;9.768;2023-07-20T08:34:48;1.17;;;1.08;;
38779;SDS011;29273;49.962;9.768;2023-07-20T08:37:13;1.45;;;1.00;;
38779;SDS011;29273;49.962;9.768;2023-07-20T08:39:39;1.30;;;1.10;;
38779;SDS011;29273;49.962;9.768;2023-07-20T08:42:05;1.27;;;1.15;;
38779;SDS011;29273;49.962;9.768;2023-07-20T08:44:34;2.33;;;1.35;;
38779;SDS011;29273;49.962;9.768;2023-07-20T08:47:02;1.77;;;1.00;;
38779;SDS011;29273;49.962;9.768;2023-07-20T08:49:29;2.30;;;1.27;;
38779;SDS011;29273;49.962;9.768;2023-07-20T08:51:56;2.05;;;1.00;;
38779;SDS011;29273;49.962;9.768;2023-07-20T08:54:22;1.27;;;1.15;;
38779;SDS011;29273;49.962;9.768;2023-07-20T08:56:49;2.72;;;0.98;;
38779;SDS011;29273;49.962;9.768;2023-07-20T08:59:16;1.20;;;1.00;;
38779;SDS011;29273;49.962;9.768;2023-07-20T09:01:43;1.00;;;0.82;;
38779;SDS011;29273;49.962;9.768;2023-07-20T09:04:09;1.17;;;0.82;;
38779;SDS011;29273;49.962;9.768;2023-07-20T09:06:35;1.77;;;1.00;;
38779;SDS011;29273;49.962;9.768;2023-07-20T09:09:01;1.30;;;1.00;;
38779;SDS011;29273;49.962;9.768;2023-07-20T09:11:27;1.00;;;0.90;;
38779;SDS011;29273;49.962;9.768;2023-07-20T09:14:02;1.85;;;1.27;;
38779;SDS011;29273;49.962;9.768;2023-07-20T09:16:32;1.45;;;0.90;;
38779;SDS011;29273;49.962;9.768;2023-07-20T09:18:58;1.30;;;0.90;;
38779;SDS011;29273;49.962;9.768;2023-07-20T09:21:23;2.05;;;1.08;;
38779;SDS011;29273;49.962;9.768;2023-07-20T09:23:56;0.97;;;0.80;;
38779;SDS011;29273;49.962;9.768;2023-07-20T09:26:22;1.35;;;0.85;;
38779;SDS011;29273;49.962;9.768;2023-07-20T09:28:48;0.95;;;0.85;;
38779;SDS011;29273;49.962;9.768;2023-07-20T09:31:17;1.88;;;0.90;;
38779;SDS011;29273;49.962;9.768;2023-07-20T09:33:44;1.30;;;0.77;;
38779;SDS011;29273;49.962;9.768;2023-07-20T09:36:11;1.00;;;0.90;;
38779;SDS011;29273;49.962;9.768;2023-07-20T09:38:36;1.33;;;0.90;;
38779;SDS011;29273;49.962;9.768;2023-07-20T09:41:04;1.40;;;0.88;;
38779;SDS011;29273;49.962;9.768;2023-07-20T09:43:31;1.08;;;0.98;;
38779;SDS011;29273;49.962;9.768;2023-07-20T09:45:58;1.20;;;0.88;;
38779;SDS011;29273;49.962;9.768;2023-07-20T09:48:24;1.80;;;0.98;;
38779;SDS011;29273;49.962;9.768;2023-07-20T09:50:51;1.10;;;0.90;;
38779;SDS011;29273;49.962;9.768;2023-07-20T09:53:17;1.33;;;0.95;;
38779;SDS011;29273;49.962;9.768;2023-07-20T09:55:46;1.00;;;0.80;;
38779;SDS011;29273;49.962;9.768;2023-07-20T09:58:13;1.65;;;1.02;;
38779;SDS011;29273;49.962;9.768;2023-07-20T10:00:40;1.55;;;0.90;;
38779;SDS011;29273;49.962;9.768;2023-07-20T10:03:13;0.90;;;0.80;;
38779;SDS011;29273;49.962;9.768;2023-07-20T10:05:43;2.05;;;0.73;;
38779;SDS011;29273;49.962;9.768;2023-07-20T10:08:12;1.25;;;0.88;;
38779;SDS011;29273;49.962;9.768;2023-07-20T10:10:38;0.98;;;0.88;;
38779;SDS011;29273;49.962;9.768;2023-07-20T10:13:06;0.90;;;0.82;;
38779;SDS011;29273;49.962;9.768;2023-07-20T10:15:54;0.90;;;0.80;;
38779;SDS011;29273;49.962;9.768;2023-07-20T10:21:19;1.00;;;0.80;;
38779;SDS011;29273;49.962;9.768;2023-07-20T10:23:48;1.10;;;1.00;;
38779;SDS011;29273;49.962;9.768;2023-07-20T10:26:14;0.70;;;0.70;;
38779;SDS011;29273;49.962;9.768;2023-07-20T10:28:40;0.57;;;0.52;;
38779;SDS011;29273;49.962;9.768;2023-07-20T10:31:07;1.42;;;0.75;;
38779;SDS011;29273;49.962;9.768;2023-07-20T10:33:35;1.10;;;0.70;;
38779;SDS011;29273;49.962;9.768;2023-07-20T10:36:02;0.90;;;0.70;;
38779;SDS011;29273;49.962;9.768;2023-07-20T10:41:18;2.60;;;1.02;;
38779;SDS011;29273;49.962;9.768;2023-07-20T10:43:58;1.60;;;0.80;;
38779;SDS011;29273;49.962;9.768;2023-07-20T10:46:34;1.10;;;0.77;;
38779;SDS011;29273;49.962;9.768;2023-07-20T10:49:08;0.75;;;0.60;;
38779;SDS011;29273;49.962;9.768;2023-07-20T10:56:41;0.88;;;0.60;;
38779;SDS011;29273;49.962;9.768;2023-07-20T10:59:17;1.67;;;0.82;;
38779;SDS011;29273;49.962;9.768;2023-07-20T11:01:45;0.70;;;0.70;;
38779;SDS011;29273;49.962;9.768;2023-07-20T11:04:12;0.60;;;0.60;;
38779;SDS011;29273;49.962;9.768;2023-07-20T11:06:38;1.30;;;0.50;;
38779;SDS011;29273;49.962;9.768;2023-07-20T11:09:09;0.60;;;0.57;;
38779;SDS011;29273;49.962;9.768;2023-07-20T11:11:41;0.57;;;0.50;;
38779;SDS011;29273;49.962;9.768;2023-07-20T11:14:22;0.80;;;0.60;;
38779;SDS011;29273;49.962;9.768;2023-07-20T11:16:49;0.73;;;0.57;;
38779;SDS011;29273;49.962;9.768;2023-07-20T11:19:17;0.63;;;0.63;;
38779;SDS011;29273;49.962;9.768;2023-07-20T11:21:43;0.80;;;0.80;;
38779;SDS011;29273;49.962;9.768;2023-07-20T11:24:10;1.15;;;0.77;;
38779;SDS011;29273;49.962;9.768;2023-07-20T11:26:51;0.70;;;0.60;;
38779;SDS011;29273;49.962;9.768;2023-07-20T11:29:18;0.90;;;0.70;;
38779;SDS011;29273;49.962;9.768;2023-07-20T11:31:45;0.93;;;0.60;;
38779;SDS011;29273;49.962;9.768;2023-07-20T11:34:12;1.02;;;0.80;;
38779;SDS011;29273;49.962;9.768;2023-07-20T11:36:40;0.93;;;0.73;;
38779;SDS011;29273;49.962;9.768;2023-07-20T11:39:10;0.88;;;0.50;;
38779;SDS011;29273;49.962;9.768;2023-07-20T11:41:37;0.88;;;0.73;;
38779;SDS011;29273;49.962;9.768;2023-07-20T11:44:05;0.82;;;0.82;;
38779;SDS011;29273;49.962;9.768;2023-07-20T11:46:38;0.73;;;0.70;;
38779;SDS011;29273;49.962;9.768;2023-07-20T11:49:04;0.60;;;0.57;;
38779;SDS011;29273;49.962;9.768;2023-07-20T11:51:30;0.63;;;0.50;;
38779;SDS011;29273;49.962;9.768;2023-07-20T11:53:57;0.57;;;0.57;;
38779;SDS011;29273;49.962;9.768;2023-07-20T11:56:24;0.70;;;0.70;;
38779;SDS011;29273;49.962;9.768;2023-07-20T11:58:50;0.50;;;0.50;;
38779;SDS011;29273;49.962;9.768;2023-07-20T12:01:19;1.05;;;0.68;;
38779;SDS011;29273;49.962;9.768;2023-07-20T12:03:45;0.60;;;0.50;;
38779;SDS011;29273;49.962;9.768;2023-07-20T12:06:13;0.75;;;0.60;;
38779;SDS011;29273;49.962;9.768;2023-07-20T12:08:39;0.73;;;0.63;;
38779;SDS011;29273;49.962;9.768;2023-07-20T12:11:07;0.77;;;0.60;;
38779;SDS011;29273;49.962;9.768;2023-07-20T12:16:14;0.43;;;0.40;;
38779;SDS011;29273;49.962;9.768;2023-07-20T12:18:42;0.73;;;0.70;;
38779;SDS011;29273;49.962;9.768;2023-07-20T12:21:08;0.70;;;0.60;;
38779;SDS011;29273;49.962;9.768;2023-07-20T12:23:36;0.50;;;0.50;;
38779;SDS011;29273;49.962;9.768;2023-07-20T12:26:05;0.50;;;0.50;;
38779;SDS011;29273;49.962;9.768;2023-07-20T12:28:38;0.50;;;0.50;;
38779;SDS011;29273;49.962;9.768;2023-07-20T12:31:06;0.50;;;0.50;;
38779;SDS011;29273;49.962;9.768;2023-07-20T12:33:32;1.10;;;0.60;;
38779;SDS011;29273;49.962;9.768;2023-07-20T12:35:57;1.15;;;0.55;;
38779;SDS011;29273;49.962;9.768;2023-07-20T12:38:24;0.57;;;0.57;;
38779;SDS011;29273;49.962;9.768;2023-07-20T12:40:51;0.50;;;0.40;;
38779;SDS011;29273;49.962;9.768;2023-07-20T12:43:16;0.50;;;0.50;;
38779;SDS011;29273;49.962;9.768;2023-07-20T12:45:42;2.10;;;0.63;;
38779;SDS011;29273;49.962;9.768;2023-07-20T12:48:08;0.73;;;0.68;;
38779;SDS011;29273;49.962;9.768;2023-07-20T12:50:34;0.52;;;0.40;;
38779;SDS011;29273;49.962;9.768;2023-07-20T12:52:59;1.02;;;0.60;;
38779;SDS011;29273;49.962;9.768;2023-07-20T12:55:25;0.57;;;0.57;;
38779;SDS011;29273;49.962;9.768;2023-07-20T12:57:50;0.70;;;0.60;;
38779;SDS011;29273;49.962;9.768;2023-07-20T13:00:16;0.88;;;0.70;;
38779;SDS011;29273;49.962;9.768;2023-07-20T13:02:41;0.65;;;0.60;;
38779;SDS011;29273;49.962;9.768;2023-07-20T13:05:08;0.98;;;0.60;;
38779;SDS011;29273;49.962;9.768;2023-07-20T13:07:34;0.73;;;0.47;;
38779;SDS011;29273;49.962;9.768;2023-07-20T13:10:04;1.13;;;0.50;;
38779;SDS011;29273;49.962;9.768;2023-07-20T13:12:32;0.40;;;0.40;;
38779;SDS011;29273;49.962;9.768;2023-07-20T13:14:58;0.60;;;0.45;;
38779;SDS011;29273;49.962;9.768;2023-07-20T13:17:26;0.52;;;0.50;;
38779;SDS011;29273;49.962;9.768;2023-07-20T13:19:52;0.65;;;0.50;;
38779;SDS011;29273;49.962;9.768;2023-07-20T13:22:18;0.82;;;0.70;;
38779;SDS011;29273;49.962;9.768;2023-07-20T13:24:44;0.50;;;0.50;;
38779;SDS011;29273;49.962;9.768;2023-07-20T13:27:11;0.85;;;0.60;;
38779;SDS011;29273;49.962;9.768;2023-07-20T13:29:37;0.80;;;0.52;;
38779;SDS011;29273;49.962;9.768;2023-07-20T13:32:02;1.02;;;0.73;;
38779;SDS011;29273;49.962;9.768;2023-07-20T13:34:30;1.38;;;0.68;;
38779;SDS011;29273;49.962;9.768;2023-07-20T13:36:56;0.82;;;0.82;;
38779;SDS011;29273;49.962;9.768;2023-07-20T13:39:21;0.60;;;0.60;;
38779;SDS011;29273;49.962;9.768;2023-07-20T13:41:49;0.90;;;0.70;;
38779;SDS011;29273;49.962;9.768;2023-07-20T13:44:15;0.77;;;0.65;;
38779;SDS011;29273;49.962;9.768;2023-07-20T13:46:40;0.50;;;0.50;;
38779;SDS011;29273;49.962;9.768;2023-07-20T13:49:06;0.80;;;0.60;;
38779;SDS011;29273;49.962;9.768;2023-07-20T13:51:31;0.68;;;0.60;;
38779;SDS011;29273;49.962;9.768;2023-07-20T13:53:57;2.47;;;0.85;;
38779;SDS011;29273;49.962;9.768;2023-07-20T13:56:23;0.63;;;0.60;;
38779;SDS011;29273;49.962;9.768;2023-07-20T13:58:50;1.08;;;0.90;;
38779;SDS011;29273;49.962;9.768;2023-07-20T14:01:16;0.73;;;0.52;;
38779;SDS011;29273;49.962;9.768;2023-07-20T14:03:43;1.10;;;0.73;;
38779;SDS011;29273;49.962;9.768;2023-07-20T14:06:08;0.70;;;0.50;;
38779;SDS011;29273;49.962;9.768;2023-07-20T14:08:34;0.50;;;0.40;;
38779;SDS011;29273;49.962;9.768;2023-07-20T14:11:00;1.05;;;0.77;;
38779;SDS011;29273;49.962;9.768;2023-07-20T14:13:26;0.95;;;0.60;;
38779;SDS011;29273;49.962;9.768;2023-07-20T14:15:51;0.70;;;0.52;;
38779;SDS011;29273;49.962;9.768;2023-07-20T14:18:17;1.40;;;0.70;;
38779;SDS011;29273;49.962;9.768;2023-07-20T14:20:42;0.85;;;0.60;;
38779;SDS011;29273;49.962;9.768;2023-07-20T14:23:09;0.57;;;0.50;;
38779;SDS011;29273;49.962;9.768;2023-07-20T14:25:34;0.43;;;0.43;;
38779;SDS011;29273;49.962;9.768;2023-07-20T14:28:01;0.43;;;0.43;;
38779;SDS011;29273;49.962;9.768;2023-07-20T14:30:26;0.70;;;0.60;;
38779;SDS011;29273;49.962;9.768;2023-07-20T14:32:54;0.85;;;0.55;;
38779;SDS011;29273;49.962;9.768;2023-07-20T14:35:20;1.65;;;0.50;;
38779;SDS011;29273;49.962;9.768;2023-07-20T14:37:45;1.00;;;0.60;;
38779;SDS011;29273;49.962;9.768;2023-07-20T14:40:12;0.43;;;0.40;;
38779;SDS011;29273;49.962;9.768;2023-07-20T14:42:38;0.90;;;0.60;;
38779;SDS011;29273;49.962;9.768;2023-07-20T14:45:05;1.00;;;0.57;;
38779;SDS011;29273;49.962;9.768;2023-07-20T14:47:31;0.63;;;0.60;;
38779;SDS011;29273;49.962;9.768;2023-07-20T14:50:03;0.95;;;0.60;;
38779;SDS011;29273;49.962;9.768;2023-07-20T14:52:30;0.68;;;0.60;;
38779;SDS011;29273;49.962;9.768;2023-07-20T14:54:55;0.98;;;0.47;;
38779;SDS011;29273;49.962;9.768;2023-07-20T14:57:21;0.52;;;0.50;;
38779;SDS011;29273;49.962;9.768;2023-07-20T14:59:51;0.85;;;0.60;;
38779;SDS011;29273;49.962;9.768;2023-07-20T15:02:17;0.50;;;0.50;;
38779;SDS011;29273;49.962;9.768;2023-07-20T15:04:47;0.60;;;0.50;;
38779;SDS011;29273;49.962;9.768;2023-07-20T15:07:13;0.60;;;0.50;;
38779;SDS011;29273;49.962;9.768;2023-07-20T15:09:38;0.60;;;0.60;;
38779;SDS011;29273;49.962;9.768;2023-07-20T15:12:04;0.73;;;0.70;;